Platzwetter Flugplatz Wels

Flugwetter Linz LOWL

[Quelle: ADDS]
METAR
LOWL 140520Z 28004KT 7000 3500NW VCFG NSC 19/18 Q1016 TEMPO 2000 BCFG =
LOWL 140515Z 1406/1506 27005KT 9999 SCT050 TX26/1414Z TN18/1504Z TEMPO 1406/1408 3000 VCFG TEMPO 1412/1506 -SHRA PROB40 TEMPO 1412/1501 27015G30KT 4000 TSRA FEW030CB BKN040
TAF
LOWL 140515Z 1406/1506 27005KT 9999 SCT050 TX26/1414Z TN18/1504Z TEMPO 1406/1408 3000 VCFG TEMPO 1412/1506 -SHRA PROB40 TEMPO 1412/1501 27015G30KT 4000 TSRA FEW030CB BKN040 =

Flugwetter Salzburg LOWS

[Quelle: ADDS]
METAR
LOWS 140520Z 18005KT 9999 FEW070 BKN100 18/17 Q1016 NOSIG =
LOWS 140515Z 1406/1506 15006KT 9999 SCT060 BKN120 TX24/1413Z TN17/1505Z BECMG 1408/1410 34006KT TEMPO 1410/1415 29015G30KT 4000 TSRA SCT040CB BKN060 TEMPO 1415/1506 -SHRA FEW040TCU BKN060 BECMG 1417/1419 15005KT
TAF
LOWS 140515Z 1406/1506 15006KT 9999 SCT060 BKN120 TX24/1413Z TN17/1505Z BECMG 1408/1410 34006KT TEMPO 1410/1415 29015G30KT 4000 TSRA SCT040CB BKN060 TEMPO 1415/1506 -SHRA FEW040TCU BKN060 BECMG 1417/1419 15005KT =

Wind - Verlauf

Windrichtung - Verlauf

Temperatur - Verlauf

Relative Luftfeuchtigkeit - Verlauf

Luftdruck - Verlauf

Cookies erleichtern die Bereitstellung unserer Dienste. Mit der Nutzung unserer Dienste erklären Sie sich damit einverstanden, dass wir Cookies verwenden.
Weitere Informationen Ok